Time;durP1;ratioP1;P1;durP2;ratioP2;P2;SDS_P1;SDS_P2;PMS_P1;PMS_P2;Temp;Humidity;BMP_temperature;BMP_pressure;BME280_temperature;BME280_humidity;BME280_pressure;Samples;Min_cycle;Max_cycle;Signal;HPM_P1;HPM_P2
2022/01/18 00:00:24;;;;;;;43.60;9.52;;;;;;;;;;5029540;28;20091;-71
2022/01/18 00:02:50;;;;;;;43.22;9.73;;;;;;;;;;5029435;28;20105;-71
2022/01/18 00:05:18;;;;;;;52.28;9.57;;;;;;;;;;5011826;28;20450;-70
2022/01/18 00:07:45;;;;;;;44.67;9.52;;;;;;;;;;5029500;28;20475;-71
2022/01/18 00:10:12;;;;;;;56.10;12.27;;;;;;;;;;5011542;28;20033;-70
2022/01/18 00:18:21;;;;;;;44.17;10.60;;;;;;;;;;5032381;28;20444;-70
2022/01/18 00:23:18;;;;;;;49.78;10.93;;;;;;;;;;5016398;28;20029;-71
2022/01/18 00:25:48;;;;;;;49.45;8.68;;;;;;;;;;5032049;28;20021;-71
2022/01/18 00:28:14;;;;;;;57.53;13.30;;;;;;;;;;5014629;28;20404;-71
2022/01/18 00:36:07;;;;;;;;;;;;;;;;;;5034047;28;20029;-71
2022/01/18 00:38:45;;;;;;;34.20;7.28;;;;;;;;;;5033049;28;19917;-71
2022/01/18 00:41:12;;;;;;;54.05;9.80;;;;;;;;;;5022406;28;20108;-71
2022/01/18 00:43:38;;;;;;;49.25;10.77;;;;;;;;;;5020840;28;20029;-71
2022/01/18 00:46:04;;;;;;;43.17;9.90;;;;;;;;;;5033863;28;20053;-72
2022/01/18 00:48:33;;;;;;;55.17;8.68;;;;;;;;;;5045866;28;20033;-71
2022/01/18 00:50:59;;;;;;;43.78;7.45;;;;;;;;;;5034326;28;20476;-71
2022/01/18 00:53:26;;;;;;;51.53;7.93;;;;;;;;;;5032870;28;20136;-71
2022/01/18 00:56:07;;;;;;;41.17;7.75;;;;;;;;;;5033008;28;20032;-71
2022/01/18 00:58:34;;;;;;;;;;;;;;;;;;5015296;28;20407;-71
2022/01/18 01:01:00;;;;;;;36.58;7.55;;;;;;;;;;5032800;28;20363;-71
2022/01/18 01:03:26;;;;;;;41.50;7.43;;;;;;;;;;5015465;28;20071;-71
2022/01/18 01:05:51;;;;;;;37.28;7.53;;;;;;;;;;5032904;28;20028;-71
2022/01/18 01:08:17;;;;;;;42.28;6.05;;;;;;;;;;5032797;28;20103;-71
2022/01/18 01:10:43;;;;;;;49.35;8.93;;;;;;;;;;5032619;28;20040;-71
2022/01/18 01:13:10;;;;;;;38.42;8.30;;;;;;;;;;4998408;28;20026;-71
2022/01/18 01:15:53;;;;;;;45.17;7.90;;;;;;;;;;5032674;28;20029;-71
2022/01/18 01:35:37;;;;;;;49.58;8.07;;;;;;;;;;5032040;28;20037;-71
2022/01/18 01:43:09;;;;;;;41.55;7.15;;;;;;;;;;5016402;28;20041;-70
2022/01/18 01:45:35;;;;;;;39.05;6.82;;;;;;;;;;5014385;28;20101;-71
2022/01/18 01:48:02;;;;;;;34.85;6.40;;;;;;;;;;5032082;28;20072;-71
2022/01/18 01:50:41;;;;;;;31.90;6.32;;;;;;;;;;5032563;28;20463;-70
2022/01/18 01:53:07;;;;;;;39.30;6.80;;;;;;;;;;5013796;28;20017;-71
2022/01/18 01:55:33;;;;;;;35.97;6.55;;;;;;;;;;5032165;28;20099;-71
2022/01/18 01:57:58;;;;;;;34.58;6.57;;;;;;;;;;5031819;28;20029;-70
2022/01/18 02:00:24;;;;;;;38.00;6.38;;;;;;;;;;5031679;28;20035;-70
2022/01/18 02:02:51;;;;;;;36.90;6.50;;;;;;;;;;5031652;28;20029;-70
2022/01/18 02:05:17;;;;;;;42.63;7.93;;;;;;;;;;5031390;28;20439;-71
2022/01/18 02:07:43;;;;;;;41.30;7.68;;;;;;;;;;5015851;28;20017;-70
2022/01/18 02:10:10;;;;;;;31.25;5.40;;;;;;;;;;5039886;28;20476;-70
2022/01/18 02:12:36;;;;;;;37.47;6.25;;;;;;;;;;5031313;28;20503;-71
2022/01/18 02:15:11;;;;;;;45.10;7.32;;;;;;;;;;5031327;28;20033;-70
2022/01/18 02:23:20;;;;;;;30.08;5.82;;;;;;;;;;5016506;28;20032;-71
2022/01/18 02:25:46;;;;;;;42.90;7.43;;;;;;;;;;5031338;28;20017;-70
2022/01/18 02:28:13;;;;;;;41.53;5.75;;;;;;;;;;5031208;28;20180;-70
2022/01/18 02:30:39;;;;;;;42.28;7.28;;;;;;;;;;5031595;28;20033;-70
2022/01/18 02:33:05;;;;;;;35.17;6.68;;;;;;;;;;5031204;28;20021;-70
2022/01/18 02:35:32;;;;;;;45.00;6.80;;;;;;;;;;5034381;28;20066;-70
2022/01/18 02:37:58;;;;;;;36.97;7.18;;;;;;;;;;5030864;28;20033;-71
2022/01/18 02:40:24;;;;;;;33.33;7.18;;;;;;;;;;5030823;28;20029;-70
2022/01/18 02:42:57;;;;;;;36.75;7.38;;;;;;;;;;5014368;28;20085;-71
2022/01/18 02:45:23;;;;;;;30.25;5.80;;;;;;;;;;5030912;28;20014;-75
2022/01/18 02:47:50;;;;;;;30.15;5.25;;;;;;;;;;5013122;28;20013;-72
2022/01/18 02:50:17;;;;;;;36.95;5.90;;;;;;;;;;5032686;28;20025;-71
2022/01/18 02:52:43;;;;;;;27.38;4.85;;;;;;;;;;5034293;28;20033;-72
2022/01/18 02:55:09;;;;;;;50.85;7.82;;;;;;;;;;5014241;28;20033;-72
2022/01/18 02:57:43;;;;;;;39.70;7.80;;;;;;;;;;5030902;28;20391;-71
2022/01/18 03:00:27;;;;;;;42.45;7.82;;;;;;;;;;5030794;28;20041;-70
2022/01/18 03:03:16;;;;;;;32.83;5.85;;;;;;;;;;5030832;28;20111;-71
2022/01/18 03:05:43;;;;;;;39.05;5.43;;;;;;;;;;5029992;28;20095;-71
2022/01/18 03:08:10;;;;;;;40.80;6.30;;;;;;;;;;5012529;28;20025;-70
2022/01/18 03:10:37;;;;;;;42.95;7.53;;;;;;;;;;5012537;28;20026;-69
2022/01/18 03:13:03;;;;;;;30.52;7.15;;;;;;;;;;5030023;28;20065;-70
2022/01/18 03:15:29;;;;;;;37.05;6.82;;;;;;;;;;5030886;28;20021;-70
2022/01/18 03:17:55;;;;;;;37.53;6.63;;;;;;;;;;5030544;28;20029;-70
2022/01/18 03:20:23;;;;;;;31.80;6.90;;;;;;;;;;5030490;28;20373;-72
2022/01/18 03:22:50;;;;;;;40.35;6.15;;;;;;;;;;5029867;28;20028;-72
2022/01/18 03:28:06;;;;;;;;;;;;;;;;;;5030731;28;20030;-71
2022/01/18 03:30:32;;;;;;;38.83;8.13;;;;;;;;;;5030177;28;19956;-72
2022/01/18 03:32:58;;;;;;;37.78;6.40;;;;;;;;;;5030255;28;20543;-71
2022/01/18 03:35:24;;;;;;;41.17;6.63;;;;;;;;;;5029983;28;20053;-72
2022/01/18 03:37:50;;;;;;;25.50;5.25;;;;;;;;;;5029726;28;20025;-72
2022/01/18 03:40:16;;;;;;;37.97;6.53;;;;;;;;;;5029899;28;20428;-72
2022/01/18 03:42:45;;;;;;;30.98;6.93;;;;;;;;;;5013520;28;20369;-71
2022/01/18 03:45:13;;;;;;;39.75;6.70;;;;;;;;;;5012005;28;20024;-72
2022/01/18 03:47:39;;;;;;;24.20;4.65;;;;;;;;;;5029686;28;20499;-72
2022/01/18 03:50:06;;;;;;;30.60;6.18;;;;;;;;;;5030251;28;20064;-71
2022/01/18 03:52:32;;;;;;;33.17;5.80;;;;;;;;;;5030130;28;20135;-72
2022/01/18 03:54:58;;;;;;;33.05;7.07;;;;;;;;;;5029483;28;20034;-72
2022/01/18 03:57:24;;;;;;;43.65;8.27;;;;;;;;;;5029681;28;20075;-71
2022/01/18 03:59:51;;;;;;;30.27;7.43;;;;;;;;;;5011795;28;20025;-71
2022/01/18 04:02:17;;;;;;;37.13;6.78;;;;;;;;;;5029819;28;20022;-72
2022/01/18 04:04:43;;;;;;;26.73;4.63;;;;;;;;;;5011675;28;20022;-72
2022/01/18 04:07:09;;;;;;;27.02;5.63;;;;;;;;;;5013355;28;20022;-71
2022/01/18 04:09:35;;;;;;;31.58;4.70;;;;;;;;;;5029680;28;20018;-71
2022/01/18 04:12:01;;;;;;;30.08;5.35;;;;;;;;;;5011669;28;20075;-71
2022/01/18 04:14:27;;;;;;;34.63;5.70;;;;;;;;;;5029328;28;20029;-72
2022/01/18 04:17:17;;;;;;;;;;;;;;;;;;;;;
2022/01/18 04:27:52;;;;;;;38.20;6.18;;;;;;;;;;5029473;28;20029;-71
2022/01/18 04:30:18;;;;;;;28.98;5.47;;;;;;;;;;5029967;28;20021;-72
2022/01/18 04:32:45;;;;;;;27.88;6.93;;;;;;;;;;5029792;28;20026;-71
2022/01/18 04:35:11;;;;;;;29.27;5.93;;;;;;;;;;5029481;28;20018;-72
2022/01/18 04:37:37;;;;;;;30.20;4.78;;;;;;;;;;5029638;28;20045;-71
2022/01/18 04:40:11;;;;;;;27.40;4.82;;;;;;;;;;5029026;28;20034;-72
2022/01/18 04:50:49;;;;;;;31.10;6.40;;;;;;;;;;5029422;28;20064;-71
2022/01/18 04:53:15;;;;;;;38.08;6.13;;;;;;;;;;5028948;28;20522;-71
2022/01/18 04:55:41;;;;;;;30.23;5.53;;;;;;;;;;5011295;28;20026;-71
2022/01/18 04:58:07;;;;;;;28.60;5.05;;;;;;;;;;5028840;28;20096;-71
2022/01/18 05:00:34;;;;;;;28.80;4.82;;;;;;;;;;5014138;28;20438;-71
2022/01/18 05:03:00;;;;;;;32.03;6.47;;;;;;;;;;5014576;28;20078;-71
2022/01/18 05:05:31;;;;;;;26.55;5.82;;;;;;;;;;5032671;28;20391;-71
2022/01/18 05:08:04;;;;;;;26.80;5.40;;;;;;;;;;5032550;28;20083;-71
2022/01/18 05:10:30;;;;;;;26.80;6.47;;;;;;;;;;5014923;28;20029;-71
2022/01/18 05:12:58;;;;;;;21.92;4.22;;;;;;;;;;5032095;28;20018;-71
2022/01/18 05:21:10;;;;;;;29.05;5.55;;;;;;;;;;5032511;28;20534;-71
2022/01/18 05:23:36;;;;;;;28.90;5.65;;;;;;;;;;5019558;28;20024;-70
2022/01/18 05:26:02;;;;;;;20.98;4.65;;;;;;;;;;5032291;28;20025;-72
2022/01/18 05:28:28;;;;;;;23.80;5.20;;;;;;;;;;5014171;28;20021;-70
2022/01/18 05:30:54;;;;;;;25.90;5.43;;;;;;;;;;5032246;28;20022;-70
2022/01/18 05:33:22;;;;;;;29.60;6.25;;;;;;;;;;5031751;28;20452;-70
2022/01/18 05:35:48;;;;;;;31.33;7.47;;;;;;;;;;5031942;28;20475;-71
2022/01/18 05:38:14;;;;;;;25.67;5.57;;;;;;;;;;5050380;22;20029;-68
2022/01/18 05:40:40;;;;;;;28.95;6.60;;;;;;;;;;5032686;28;20033;-68
2022/01/18 05:43:07;;;;;;;27.92;5.10;;;;;;;;;;5034220;28;20025;-68
2022/01/18 05:45:33;;;;;;;17.92;4.95;;;;;;;;;;5045201;28;20025;-68
2022/01/18 05:47:59;;;;;;;23.15;4.57;;;;;;;;;;5041795;28;20021;-70
2022/01/18 05:50:25;;;;;;;27.20;5.07;;;;;;;;;;5037704;28;20024;-68
2022/01/18 05:52:50;;;;;;;23.80;5.00;;;;;;;;;;5048044;28;20033;-69
2022/01/18 05:55:17;;;;;;;24.75;5.50;;;;;;;;;;5036042;28;20033;-69
2022/01/18 05:57:43;;;;;;;26.13;4.68;;;;;;;;;;5043314;28;20108;-68
2022/01/18 06:00:18;;;;;;;23.33;6.00;;;;;;;;;;5043136;28;20039;-69
2022/01/18 06:02:53;;;;;;;27.70;5.35;;;;;;;;;;5035032;28;20024;-68
2022/01/18 06:08:04;;;;;;;36.60;7.47;;;;;;;;;;5041954;28;20064;-68
2022/01/18 06:10:30;;;;;;;24.23;6.38;;;;;;;;;;5035535;28;20117;-68
2022/01/18 06:12:56;;;;;;;36.03;6.65;;;;;;;;;;5047396;28;20061;-68
2022/01/18 06:15:22;;;;;;;41.90;6.88;;;;;;;;;;5036048;28;20039;-68
2022/01/18 06:17:48;;;;;;;31.48;7.40;;;;;;;;;;5024167;28;20473;-69
2022/01/18 06:20:14;;;;;;;22.23;4.97;;;;;;;;;;5043393;28;20132;-69
2022/01/18 06:22:40;;;;;;;24.38;3.67;;;;;;;;;;5034475;28;20049;-67
2022/01/18 06:25:07;;;;;;;25.85;4.40;;;;;;;;;;5046927;28;20100;-70
2022/01/18 06:27:33;;;;;;;25.65;6.32;;;;;;;;;;5037452;28;20091;-68
2022/01/18 06:29:59;;;;;;;28.35;4.88;;;;;;;;;;5040174;28;20029;-66
2022/01/18 06:32:25;;;;;;;28.88;5.35;;;;;;;;;;5044746;28;20053;-68
2022/01/18 06:34:51;;;;;;;23.40;4.28;;;;;;;;;;5015841;28;20067;-67
2022/01/18 06:37:17;;;;;;;18.92;3.38;;;;;;;;;;5045929;28;20096;-69
2022/01/18 06:39:43;;;;;;;16.27;3.67;;;;;;;;;;5037781;28;20112;-68
2022/01/18 06:42:11;;;;;;;28.60;4.35;;;;;;;;;;5041889;28;20536;-68
2022/01/18 06:44:37;;;;;;;24.50;5.68;;;;;;;;;;5033976;28;20176;-68
2022/01/18 06:47:03;;;;;;;24.02;3.90;;;;;;;;;;5031600;28;20105;-67
2022/01/18 06:49:29;;;;;;;21.05;4.45;;;;;;;;;;5042991;28;20098;-68
2022/01/18 06:51:55;;;;;;;26.55;4.43;;;;;;;;;;5039086;28;20025;-69
2022/01/18 06:54:21;;;;;;;22.77;5.05;;;;;;;;;;5035811;28;20021;-68
2022/01/18 06:56:49;;;;;;;20.45;4.07;;;;;;;;;;5045503;28;20103;-70
2022/01/18 06:59:15;;;;;;;20.73;4.63;;;;;;;;;;5033872;28;20017;-67
2022/01/18 07:01:41;;;;;;;23.98;3.95;;;;;;;;;;5026448;28;20115;-69
2022/01/18 07:04:07;;;;;;;30.30;4.45;;;;;;;;;;5041721;28;20079;-69
2022/01/18 07:06:34;;;;;;;25.65;5.35;;;;;;;;;;5036125;28;20387;-69
2022/01/18 07:09:00;;;;;;;20.45;4.13;;;;;;;;;;5043965;28;20043;-66
2022/01/18 07:11:27;;;;;;;25.92;4.85;;;;;;;;;;5022691;28;20053;-70
2022/01/18 07:13:53;;;;;;;22.80;5.40;;;;;;;;;;5018898;28;20116;-68
2022/01/18 07:16:19;;;;;;;19.65;4.72;;;;;;;;;;5034470;28;20040;-69
2022/01/18 07:18:45;;;;;;;20.17;4.20;;;;;;;;;;5038440;28;20033;-69
2022/01/18 07:21:11;;;;;;;21.70;3.50;;;;;;;;;;5033633;28;20055;-70
2022/01/18 07:23:38;;;;;;;17.58;4.80;;;;;;;;;;5035824;28;20406;-68
2022/01/18 07:26:04;;;;;;;19.35;4.50;;;;;;;;;;5042981;28;20614;-68
2022/01/18 07:28:30;;;;;;;32.83;4.88;;;;;;;;;;5034687;28;20033;-69
2022/01/18 07:30:56;;;;;;;25.17;4.40;;;;;;;;;;5047805;28;20025;-69
2022/01/18 07:33:22;;;;;;;26.55;5.15;;;;;;;;;;5044191;28;20022;-69
2022/01/18 07:35:49;;;;;;;23.48;4.28;;;;;;;;;;5038456;28;20052;-70
2022/01/18 07:38:17;;;;;;;21.23;4.43;;;;;;;;;;5036983;28;20052;-68
2022/01/18 07:40:45;;;;;;;15.77;4.15;;;;;;;;;;5034500;28;20456;-70
2022/01/18 07:43:15;;;;;;;26.85;4.00;;;;;;;;;;5031622;28;20048;-67
2022/01/18 07:45:42;;;;;;;20.83;3.58;;;;;;;;;;5043932;28;20024;-69
2022/01/18 07:48:08;;;;;;;16.60;3.55;;;;;;;;;;5037511;28;20024;-69
2022/01/18 07:50:34;;;;;;;15.48;3.75;;;;;;;;;;5029185;28;20026;-69
2022/01/18 07:53:00;;;;;;;28.95;4.65;;;;;;;;;;5046060;28;20021;-70
2022/01/18 07:55:26;;;;;;;24.20;4.55;;;;;;;;;;5035586;28;20020;-69
2022/01/18 07:57:54;;;;;;;19.17;4.55;;;;;;;;;;5022063;28;20031;-70
2022/01/18 08:00:21;;;;;;;23.63;4.32;;;;;;;;;;5024950;28;20021;-68
2022/01/18 08:02:47;;;;;;;20.15;4.03;;;;;;;;;;5032368;28;20091;-67
2022/01/18 08:05:13;;;;;;;24.50;4.63;;;;;;;;;;5045272;28;20265;-69
2022/01/18 08:07:39;;;;;;;26.67;4.82;;;;;;;;;;5036654;28;20020;-69
2022/01/18 08:10:06;;;;;;;18.92;3.72;;;;;;;;;;5017147;28;20108;-69
2022/01/18 08:12:32;;;;;;;20.45;3.45;;;;;;;;;;5039652;28;20029;-67
2022/01/18 08:15:02;;;;;;;25.95;4.32;;;;;;;;;;5032130;28;20027;-68
2022/01/18 08:17:29;;;;;;;16.97;3.20;;;;;;;;;;5020318;28;20032;-68
2022/01/18 08:19:55;;;;;;;19.98;4.05;;;;;;;;;;5033913;28;20280;-71
2022/01/18 08:22:21;;;;;;;39.63;15.60;;;;;;;;;;5012253;28;20025;-70
2022/01/18 08:24:47;;;;;;;40.33;11.68;;;;;;;;;;5028912;28;20028;-74
2022/01/18 08:27:13;;;;;;;33.50;9.45;;;;;;;;;;5045483;28;20059;-73
2022/01/18 08:29:39;;;;;;;38.97;11.20;;;;;;;;;;5021936;28;20036;-68
2022/01/18 08:32:06;;;;;;;18.20;3.40;;;;;;;;;;5042354;28;20030;-69
2022/01/18 08:34:32;;;;;;;22.95;4.07;;;;;;;;;;5041024;28;20060;-74
2022/01/18 08:36:58;;;;;;;85.30;27.90;;;;;;;;;;5038256;28;20497;-74
2022/01/18 08:39:24;;;;;;;117.47;44.47;;;;;;;;;;5048796;28;20044;-72
2022/01/18 08:41:50;;;;;;;59.90;21.73;;;;;;;;;;5037986;28;20352;-70
2022/01/18 08:44:16;;;;;;;67.70;22.25;;;;;;;;;;5044035;28;20018;-73
2022/01/18 08:46:42;;;;;;;91.38;32.50;;;;;;;;;;5032952;28;20301;-72
2022/01/18 08:49:08;;;;;;;49.13;15.35;;;;;;;;;;5032690;28;20493;-69
2022/01/18 08:51:35;;;;;;;53.22;14.93;;;;;;;;;;5032976;28;20029;-71
2022/01/18 08:54:01;;;;;;;43.33;13.45;;;;;;;;;;5032680;28;20435;-70
2022/01/18 08:56:29;;;;;;;58.70;19.67;;;;;;;;;;5032823;28;20435;-77
2022/01/18 08:58:55;;;;;;;43.53;10.90;;;;;;;;;;5032596;28;20499;-74
2022/01/18 09:01:21;;;;;;;46.60;12.90;;;;;;;;;;5028625;28;20056;-74
2022/01/18 09:03:48;;;;;;;48.90;16.50;;;;;;;;;;5035636;28;20022;-73
2022/01/18 09:06:16;;;;;;;81.20;28.52;;;;;;;;;;5047268;28;20498;-74
2022/01/18 09:08:42;;;;;;;35.97;13.38;;;;;;;;;;5040931;28;20017;-74
2022/01/18 09:11:10;;;;;;;79.68;26.63;;;;;;;;;;5039848;28;20139;-71
2022/01/18 09:13:37;;;;;;;84.95;27.08;;;;;;;;;;5048691;28;20017;-72
2022/01/18 09:16:05;;;;;;;41.40;11.90;;;;;;;;;;5033196;28;20025;-69
2022/01/18 09:18:31;;;;;;;31.63;7.80;;;;;;;;;;5032716;28;20052;-69
2022/01/18 09:20:57;;;;;;;23.73;4.50;;;;;;;;;;5014566;28;20036;-75
2022/01/18 09:23:23;;;;;;;39.90;10.93;;;;;;;;;;5032281;28;20022;-69
2022/01/18 09:25:49;;;;;;;38.80;11.02;;;;;;;;;;5031094;28;20079;-69
2022/01/18 09:28:15;;;;;;;32.00;9.23;;;;;;;;;;5013018;28;20041;-69
2022/01/18 09:30:42;;;;;;;29.38;9.48;;;;;;;;;;5031295;28;20021;-70
2022/01/18 09:33:08;;;;;;;40.75;11.40;;;;;;;;;;5030470;28;20032;-70
2022/01/18 09:35:35;;;;;;;52.35;17.70;;;;;;;;;;5032221;28;20030;-70
2022/01/18 09:38:01;;;;;;;34.67;7.50;;;;;;;;;;5032270;28;20030;-69
2022/01/18 09:40:27;;;;;;;33.42;10.55;;;;;;;;;;5033211;28;20415;-68
2022/01/18 09:42:57;;;;;;;54.10;19.20;;;;;;;;;;5033388;28;20022;-71
2022/01/18 09:45:24;;;;;;;28.00;5.60;;;;;;;;;;5033700;28;20017;-68
2022/01/18 09:47:51;;;;;;;41.63;11.32;;;;;;;;;;5033772;28;20053;-68
2022/01/18 09:50:21;;;;;;;52.72;17.13;;;;;;;;;;5034079;28;20030;-70
2022/01/18 09:52:52;;;;;;;52.38;17.40;;;;;;;;;;5033928;28;20033;-69
2022/01/18 09:55:19;;;;;;;35.47;11.98;;;;;;;;;;5033729;28;20545;-70
2022/01/18 09:57:45;;;;;;;39.92;12.20;;;;;;;;;;5033513;28;20033;-68
2022/01/18 10:00:11;;;;;;;48.50;16.05;;;;;;;;;;5033923;28;20034;-66
2022/01/18 10:02:37;;;;;;;55.92;18.60;;;;;;;;;;5033487;28;20032;-68
2022/01/18 10:05:23;;;;;;;21.35;4.70;;;;;;;;;;5033491;28;20395;-69
2022/01/18 10:08:11;;;;;;;24.58;6.53;;;;;;;;;;5033593;28;20035;-68
2022/01/18 10:10:45;;;;;;;32.30;8.27;;;;;;;;;;5033387;28;20025;-68
2022/01/18 10:13:16;;;;;;;31.75;10.85;;;;;;;;;;5033211;28;20438;-70
2022/01/18 10:16:01;;;;;;;63.88;23.02;;;;;;;;;;5033309;28;20052;-71
2022/01/18 10:18:42;;;;;;;49.22;19.13;;;;;;;;;;5033801;28;20037;-69
2022/01/18 10:21:08;;;;;;;47.67;17.80;;;;;;;;;;5031731;28;20132;-70
2022/01/18 10:23:38;;;;;;;47.40;17.20;;;;;;;;;;5031544;28;20024;-67
2022/01/18 10:26:17;;;;;;;40.20;14.57;;;;;;;;;;5031999;28;20551;-68
2022/01/18 10:28:43;;;;;;;26.40;6.82;;;;;;;;;;5015103;28;20561;-68
2022/01/18 10:31:25;;;;;;;58.45;18.45;;;;;;;;;;5031975;28;20037;-69
2022/01/18 10:34:11;;;;;;;17.17;4.47;;;;;;;;;;5031589;28;20040;-68
2022/01/18 10:36:50;;;;;;;31.58;11.68;;;;;;;;;;5031564;28;20487;-69
2022/01/18 10:39:20;;;;;;;27.15;9.10;;;;;;;;;;5013868;28;20037;-66
2022/01/18 10:41:46;;;;;;;36.60;12.52;;;;;;;;;;5031925;28;20487;-68
2022/01/18 10:44:14;;;;;;;40.03;14.20;;;;;;;;;;5014120;28;20028;-68
2022/01/18 10:46:59;;;;;;;32.85;11.40;;;;;;;;;;5015213;28;20021;-68
2022/01/18 10:49:30;;;;;;;26.40;7.55;;;;;;;;;;5014799;28;20018;-69
2022/01/18 10:52:02;;;;;;;21.85;6.10;;;;;;;;;;5033109;28;20028;-70
2022/01/18 10:54:37;;;;;;;24.35;9.40;;;;;;;;;;5032899;28;20406;-69
2022/01/18 10:57:04;;;;;;;33.10;13.50;;;;;;;;;;5032083;28;20092;-69
2022/01/18 10:59:30;;;;;;;44.50;17.48;;;;;;;;;;5032431;28;20026;-69
2022/01/18 11:02:23;;;;;;;25.60;8.95;;;;;;;;;;5032750;28;20030;-70
2022/01/18 11:04:49;;;;;;;13.40;4.13;;;;;;;;;;5029651;28;20069;-70
2022/01/18 11:07:16;;;;;;;43.00;16.25;;;;;;;;;;5032420;28;20044;-71
2022/01/18 11:09:42;;;;;;;17.58;4.82;;;;;;;;;;5032432;28;20106;-69
2022/01/18 11:12:09;;;;;;;37.33;14.38;;;;;;;;;;5031903;28;20112;-69
2022/01/18 11:14:38;;;;;;;15.63;3.55;;;;;;;;;;5031616;28;20032;-68
2022/01/18 11:17:05;;;;;;;12.02;3.78;;;;;;;;;;5032051;28;20033;-69
2022/01/18 11:19:34;;;;;;;16.15;6.78;;;;;;;;;;5030862;28;20025;-69
2022/01/18 11:22:01;;;;;;;42.60;16.58;;;;;;;;;;5032075;28;20021;-68
2022/01/18 11:24:29;;;;;;;22.42;8.07;;;;;;;;;;5031563;28;20029;-69
2022/01/18 11:26:55;;;;;;;12.82;4.15;;;;;;;;;;5031970;28;20022;-67
2022/01/18 11:29:22;;;;;;;46.17;19.02;;;;;;;;;;5031801;28;20029;-68
2022/01/18 11:31:52;;;;;;;23.23;9.90;;;;;;;;;;5014137;28;20066;-67
2022/01/18 11:34:37;;;;;;;10.33;3.77;;;;;;;;;;5031755;28;20100;-70
2022/01/18 11:37:14;;;;;;;9.45;3.92;;;;;;;;;;5031629;28;20104;-68
2022/01/18 11:39:40;;;;;;;28.00;9.18;;;;;;;;;;5067672;22;20059;-73
2022/01/18 11:42:13;;;;;;;12.05;4.72;;;;;;;;;;5052257;28;20033;-71
2022/01/18 11:44:39;;;;;;;14.75;5.53;;;;;;;;;;5050589;28;20463;-71
2022/01/18 11:47:06;;;;;;;29.65;12.80;;;;;;;;;;5051242;28;20025;-69
2022/01/18 11:49:33;;;;;;;43.63;17.65;;;;;;;;;;5051034;28;20124;-71
2022/01/18 11:52:03;;;;;;;26.90;8.73;;;;;;;;;;5051792;28;20028;-72
2022/01/18 11:57:16;;;;;;;12.65;4.35;;;;;;;;;;5050930;28;20044;-71
2022/01/18 11:59:42;;;;;;;13.27;5.20;;;;;;;;;;5032862;28;20029;-72
2022/01/18 12:02:08;;;;;;;16.25;6.40;;;;;;;;;;5051367;28;20025;-71
2022/01/18 12:04:41;;;;;;;9.45;3.45;;;;;;;;;;5051029;28;20039;-71
2022/01/18 12:07:07;;;;;;;10.70;3.85;;;;;;;;;;5049031;28;20368;-74
2022/01/18 12:09:40;;;;;;;15.57;5.07;;;;;;;;;;5049873;28;20033;-74
2022/01/18 12:12:26;;;;;;;21.48;8.25;;;;;;;;;;5048695;28;20017;-72
2022/01/18 12:14:52;;;;;;;16.20;6.13;;;;;;;;;;5050794;28;20071;-70
2022/01/18 12:17:18;;;;;;;17.60;4.85;;;;;;;;;;5051321;28;20021;-71
2022/01/18 12:19:45;;;;;;;15.88;5.55;;;;;;;;;;5051156;28;20025;-72
2022/01/18 12:22:12;;;;;;;17.10;6.05;;;;;;;;;;5051116;28;20072;-71
2022/01/18 12:24:41;;;;;;;15.07;5.10;;;;;;;;;;5051075;28;20060;-74
2022/01/18 12:27:25;;;;;;;29.10;11.20;;;;;;;;;;5051361;28;20017;-72
2022/01/18 12:30:14;;;;;;;11.30;4.75;;;;;;;;;;5051207;28;20029;-71
2022/01/18 12:33:01;;;;;;;19.20;7.80;;;;;;;;;;5051072;28;20033;-71
2022/01/18 12:35:27;;;;;;;16.98;5.10;;;;;;;;;;5050975;28;20033;-70
2022/01/18 12:37:54;;;;;;;12.10;3.58;;;;;;;;;;5051415;28;20049;-71
2022/01/18 12:40:24;;;;;;;14.02;4.95;;;;;;;;;;5050812;28;20493;-71
2022/01/18 12:45:36;;;;;;;10.98;3.42;;;;;;;;;;5051275;28;20453;-72
2022/01/18 12:48:08;;;;;;;14.82;4.65;;;;;;;;;;5051362;28;20053;-72
2022/01/18 12:50:34;;;;;;;16.52;5.00;;;;;;;;;;5051549;28;20444;-72
2022/01/18 12:53:07;;;;;;;7.60;2.63;;;;;;;;;;5033224;28;20375;-72
2022/01/18 12:55:40;;;;;;;10.52;3.70;;;;;;;;;;5051137;28;20399;-71
2022/01/18 12:58:10;;;;;;;17.65;6.22;;;;;;;;;;5051378;28;20033;-73
2022/01/18 13:00:36;;;;;;;10.35;4.25;;;;;;;;;;5031819;28;20029;-71
2022/01/18 13:03:02;;;;;;;23.73;9.27;;;;;;;;;;5049666;28;20025;-72
2022/01/18 13:05:41;;;;;;;11.15;3.80;;;;;;;;;;5050070;28;20025;-72
2022/01/18 13:08:08;;;;;;;12.90;4.43;;;;;;;;;;5050098;28;20021;-74
2022/01/18 13:10:42;;;;;;;15.10;5.32;;;;;;;;;;5050306;28;20021;-72
2022/01/18 13:13:09;;;;;;;10.10;3.05;;;;;;;;;;5050516;28;20032;-73
2022/01/18 13:26:30;;;;;;;21.08;8.27;;;;;;;;;;5054877;28;20036;-72
2022/01/18 13:28:56;;;;;;;9.38;3.20;;;;;;;;;;5054655;28;20095;-71
2022/01/18 13:31:25;;;;;;;7.38;2.65;;;;;;;;;;5054444;28;20145;-71
2022/01/18 13:33:56;;;;;;;12.05;2.28;;;;;;;;;;5054019;28;20013;-71
2022/01/18 13:36:22;;;;;;;8.05;2.63;;;;;;;;;;5054421;28;20074;-72
2022/01/18 13:38:49;;;;;;;18.60;7.80;;;;;;;;;;5053888;28;20033;-71
2022/01/18 13:41:16;;;;;;;16.77;3.63;;;;;;;;;;5053552;28;20055;-70
2022/01/18 13:43:43;;;;;;;11.27;2.92;;;;;;;;;;5053258;28;20024;-72
2022/01/18 13:46:09;;;;;;;23.33;7.38;;;;;;;;;;5054029;28;20028;-71
2022/01/18 13:48:35;;;;;;;20.45;6.53;;;;;;;;;;5052844;28;20039;-70
2022/01/18 13:51:15;;;;;;;6.47;2.78;;;;;;;;;;5054035;28;20029;-73
2022/01/18 13:53:41;;;;;;;7.07;2.35;;;;;;;;;;5053606;28;20023;-71
2022/01/18 13:56:12;;;;;;;13.75;5.57;;;;;;;;;;5054300;28;20115;-71
2022/01/18 13:58:40;;;;;;;8.48;2.35;;;;;;;;;;5053764;28;20459;-71
2022/01/18 14:01:06;;;;;;;8.68;2.70;;;;;;;;;;5053596;28;20569;-71
2022/01/18 14:03:34;;;;;;;5.30;1.92;;;;;;;;;;5053425;28;20051;-72
2022/01/18 14:06:00;;;;;;;9.63;3.97;;;;;;;;;;5053522;28;20029;-70
2022/01/18 14:08:37;;;;;;;8.85;3.20;;;;;;;;;;5053358;28;20051;-72
2022/01/18 14:11:08;;;;;;;6.57;2.72;;;;;;;;;;5053741;28;20021;-72
2022/01/18 14:13:36;;;;;;;9.48;3.97;;;;;;;;;;5053294;28;20070;-72
2022/01/18 14:16:20;;;;;;;6.20;2.80;;;;;;;;;;5054252;28;20036;-72
2022/01/18 14:18:57;;;;;;;7.22;2.92;;;;;;;;;;5034698;28;20025;-72
2022/01/18 14:21:26;;;;;;;7.82;2.95;;;;;;;;;;5035390;28;20033;-72
2022/01/18 14:24:13;;;;;;;6.55;3.05;;;;;;;;;;5052208;28;20013;-74
2022/01/18 14:26:41;;;;;;;30.88;10.05;;;;;;;;;;5031269;28;20021;-72
2022/01/18 14:29:07;;;;;;;9.02;3.65;;;;;;;;;;5033013;28;20487;-72
2022/01/18 14:31:33;;;;;;;5.55;2.40;;;;;;;;;;5049164;28;20092;-73
2022/01/18 14:33:59;;;;;;;7.03;4.38;;;;;;;;;;5052508;28;20511;-71
2022/01/18 14:36:25;;;;;;;7.65;2.78;;;;;;;;;;5035139;28;20398;-72
2022/01/18 14:39:08;;;;;;;15.23;4.55;;;;;;;;;;5052960;28;20039;-75
2022/01/18 14:41:34;;;;;;;9.88;3.38;;;;;;;;;;5052867;28;20087;-72
2022/01/18 14:44:09;;;;;;;8.95;3.45;;;;;;;;;;5052525;28;20414;-73
2022/01/18 14:49:19;;;;;;;7.35;2.10;;;;;;;;;;5051997;28;20070;-71
2022/01/18 14:51:45;;;;;;;9.13;3.10;;;;;;;;;;5053080;28;20398;-73
2022/01/18 14:54:11;;;;;;;8.23;3.10;;;;;;;;;;5052603;28;20084;-72
2022/01/18 14:56:37;;;;;;;8.82;2.80;;;;;;;;;;5052542;28;20364;-71
2022/01/18 14:59:03;;;;;;;11.10;4.13;;;;;;;;;;5052870;28;20031;-70
2022/01/18 15:01:29;;;;;;;5.30;2.92;;;;;;;;;;5052690;28;20029;-71
2022/01/18 15:03:55;;;;;;;6.45;3.05;;;;;;;;;;5052442;28;20021;-72
2022/01/18 15:06:21;;;;;;;9.55;2.83;;;;;;;;;;5052529;28;20474;-70
2022/01/18 15:08:47;;;;;;;5.95;2.95;;;;;;;;;;5052391;28;20040;-71
2022/01/18 15:11:13;;;;;;;7.78;3.00;;;;;;;;;;5052610;28;20025;-71
2022/01/18 15:13:39;;;;;;;6.30;3.03;;;;;;;;;;5050793;28;20074;-72
2022/01/18 15:16:05;;;;;;;8.40;3.60;;;;;;;;;;5052422;28;20108;-72
2022/01/18 15:18:31;;;;;;;7.90;3.65;;;;;;;;;;5052328;28;20394;-72
2022/01/18 15:20:57;;;;;;;7.43;3.05;;;;;;;;;;5052227;28;20113;-72
2022/01/18 15:23:23;;;;;;;18.13;5.65;;;;;;;;;;5051906;28;20489;-72
2022/01/18 15:25:49;;;;;;;11.50;4.88;;;;;;;;;;5052453;28;20021;-72
2022/01/18 15:28:15;;;;;;;10.27;4.03;;;;;;;;;;5051367;28;20024;-73
2022/01/18 15:30:41;;;;;;;8.77;3.35;;;;;;;;;;5051433;28;20025;-71
2022/01/18 15:33:09;;;;;;;11.13;4.07;;;;;;;;;;5050560;28;20048;-71
2022/01/18 15:35:35;;;;;;;10.38;3.47;;;;;;;;;;5051055;28;20019;-70
2022/01/18 15:38:01;;;;;;;8.85;3.70;;;;;;;;;;5051598;28;20048;-72
2022/01/18 15:40:27;;;;;;;12.90;3.53;;;;;;;;;;5051765;28;20072;-73
2022/01/18 15:42:53;;;;;;;8.82;3.28;;;;;;;;;;5051689;28;20021;-76
2022/01/18 15:45:19;;;;;;;7.47;3.17;;;;;;;;;;5052131;28;20090;-71
2022/01/18 15:47:45;;;;;;;9.48;2.92;;;;;;;;;;5051869;28;20090;-71
2022/01/18 15:50:11;;;;;;;8.70;3.60;;;;;;;;;;5051155;28;20490;-73
2022/01/18 15:52:38;;;;;;;8.45;3.25;;;;;;;;;;5050682;28;20339;-72
2022/01/18 15:55:04;;;;;;;4.75;3.15;;;;;;;;;;5052520;28;20112;-74
2022/01/18 15:57:30;;;;;;;5.97;3.45;;;;;;;;;;5051500;28;20021;-72
2022/01/18 15:59:57;;;;;;;13.35;5.85;;;;;;;;;;5051680;28;20016;-72
2022/01/18 16:02:23;;;;;;;8.50;4.15;;;;;;;;;;5052276;28;20489;-72
2022/01/18 16:04:49;;;;;;;11.55;4.88;;;;;;;;;;5051656;28;20422;-72